Hauptseite
METAR-TAF:

METAR-TAF

Flughäfen :

Quaqtaq, Québec, Kanada

Breite: 61-03N, Länge: 069-38W, Höhe: 30 m

Beobachtung

Neuester Wetterbericht von vor 1 Stunde und 18 Minuten, um 21:00 UTC
Wind 8 kt aus Süd
Temperatur -21°C
Luftfeuchtigkeit 70%
Luftdruck 1025 hPa
Sichtweite: 24.1 km
Leicht bewölkt in der Höhe von 25000 ft

METAR: CYHA 092100Z 18008KT 15SM FEW250 M21/M25 A3026 RMK CI1 SLP254

Zeit: 17:18 (22:18 UTC)

Prognose

Neuester Wetterbericht von vor 7 Stunden und 40 Minuten, um 14:38 UTC
Gültige Prognose vom 09 um 15 UTC bis 09 um 22 UTC
Wind 8 kt aus Süd/Südost
Sichtweite: 10 km
Leicht bewölkt in der Höhe von 800 ft

TAF: CYHA 091438Z 0915/0922 16008KT P6SM FEW008 RMK NXT FCST WILL BE ISSUED AT 101445Z

Wetterbeobachtungen und Prognosen von mehr als 4000 Flughäfen (METAR und TAF Bericht).

Die verfügbaren Stationen werden durch gelbe und rote Markierungen auf der Karte dargestellt.

Führen Sie die Maus auf sie, um den Namen der Station zu sehen.

Darauf klicken, um die Beobachtung von Wetterbeobachtungen und Prognosen zu sehen.

Um die Karte zu ändern : klicken Sie auf den grünen Tasten mit einem schwarzen Kreuz Zum Vergrößern, auf den grünen Button mit einem Gedankenstrich zu verkleinern, oder auf die grünen Pfeile für benachbarte Karten.


METAR-TAF: